Aeroporto :
LOGIN :

Iscrizione | Disclaimer

   EN    FR    IT 

 










Sommario :    VFR   VFR Marginale   IFR   IFR Intensivo   IFR Molto Intensivo
Visibilità : 
Base nubi : 
>= 8 km
>= 3000ft
5 / 8 km
1000 / 3000 ft
1500m / 5 km
500 / 1000 ft
800 / 1500m
200 / 500 ft
< 800m
< 200 ft
Simboli :   Temporali  Nebbia  Neve Forte  Precipitazioni Forti  Vento > 20 kt
SIGMETs :   Varie  Temporali  Ghiacco  Turbolenza  Onda orograficha  Ceneri Vulcaniche






- Altitudine del aeroporto : 194 ft


EBCV - Chièvres

ULTIMO METAR :
  • 141055Z AUTO 20012KT 9999 -DZ SCT010/// BKN013/// BKN100/// 15/13 Q1006 GRN

METARs OBSOLETI :
  • 141025Z AUTO 20011KT 9999 SCT010/// BKN015/// BKN032/// 15/13 Q1006 GRN
  • 140955Z AUTO 20012KT 9999 DZ SCT011/// BKN014/// OVC100/// 14/12 Q1006 GRN
  • 140925Z AUTO 21012KT 9999 SCT012/// BKN015/// BKN110/// 14/12 Q1006 GRN
  • 140855Z AUTO 20012KT 9999 BKN013/// OVC100/// 14/12 Q1006 GRN
  • 140825Z AUTO 20012KT 9999 SCT013/// BKN016/// OVC100/// 14/12 Q1006 GRN
  • 140803Z AUTO 20012KT 9999 SCT014/// BKN017/// BKN100/// 14/11 Q1006 GRN
  • 140755Z AUTO 20013KT 9999 SCT015/// BKN018/// BKN100/// 14/12 Q1006 WHT
  • 140725Z AUTO 20010KT 9999 FEW014/// SCT019/// BKN033/// 13/12 Q1006 WHT
  • 140707Z AUTO 21012KT 4700 -RA SCT018/// BKN021/// BKN100/// 13/11 Q1006 GRN
  • 140655Z AUTO 20014KT 9999 -DZ SCT018/// BKN021/// BKN049/// 14/11 Q1006 WHT
  • 140625Z AUTO 20014KT 9999 BKN021/// BKN050/// 14/10 Q1006 WHT

TAF TAF EBCV
Valido dal 14 a 10 ore il 14 a 19 ore UTC


140841Z 1410/1419 20013G23KT 9999 FEW020 SCT025 BKN050
TEMPO 1411/1419 22015G25KT 6000 -SHRA SCT020TCU
PROB40
TEMPO 1416/1419 22017G27KT 4000 SHRA SCT018TCU
PROB30
TEMPO 1417/1419 22017G27KT 3000 -TSRA BKN015CB BY EBWM



MetMap, La meteo Aeronautica in un colpo d'occhio ! - Copyright ORBIFLY Dicembre 2007 - Disclaimer

ORBIFLY MET'MAP TEAM :

Programmazione e sviluppo : Alexandra Zaïnal
Concezione : Baudouin d'Aumeries
Supporto tecnico e logistico : Manuel Goepfert
Aiuto : Marc-Olivier Méhu
Aiuto per la traduzione : Arnaldo La Scala




FONTI E CREDITI :

   NOAA